Time;durP1;ratioP1;P1;durP2;ratioP2;P2;SDS_P1;SDS_P2;PMS_P1;PMS_P2;Temp;Humidity;BMP_temperature;BMP_pressure;BME280_temperature;BME280_humidity;BME280_pressure;Samples;Min_cycle;Max_cycle;Signal;HPM_P1;HPM_P2
2022/01/31 00:00:44;;;;;;;27.70;4.55;;;2.50;99.90;;;;;;5100673;28;20420;-66
2022/01/31 00:03:11;;;;;;;38.13;5.43;;;2.50;99.90;;;;;;5100287;28;20039;-67
2022/01/31 00:05:38;;;;;;;24.83;3.72;;;2.40;99.90;;;;;;5082417;28;20443;-67
2022/01/31 00:08:05;;;;;;;28.77;4.43;;;2.50;99.90;;;;;;5100715;28;20028;-66
2022/01/31 00:10:33;;;;;;;29.75;3.78;;;2.50;99.90;;;;;;5100317;28;20047;-67
2022/01/31 00:13:08;;;;;;;26.70;4.85;;;2.50;99.90;;;;;;5099900;28;20030;-67
2022/01/31 00:15:42;;;;;;;19.67;4.87;;;2.50;99.90;;;;;;5100710;28;20115;-66
2022/01/31 00:18:10;;;;;;;18.95;4.15;;;2.50;99.90;;;;;;5101544;28;20262;-66
2022/01/31 00:20:37;;;;;;;19.00;3.78;;;2.60;99.90;;;;;;5101231;28;20031;-66
2022/01/31 00:23:04;;;;;;;22.60;4.63;;;2.60;99.90;;;;;;5100738;28;20028;-66
2022/01/31 00:25:32;;;;;;;22.95;3.78;;;2.60;99.90;;;;;;5100954;28;20315;-66
2022/01/31 00:27:59;;;;;;;28.67;3.58;;;2.60;99.90;;;;;;5100872;28;20024;-66
2022/01/31 00:30:27;;;;;;;24.35;3.30;;;2.60;99.90;;;;;;5100289;28;20111;-67
2022/01/31 00:32:55;;;;;;;29.30;4.95;;;2.60;99.90;;;;;;5082444;28;20363;-66
2022/01/31 00:35:22;;;;;;;23.08;5.18;;;2.60;99.90;;;;;;5081868;28;20043;-67
2022/01/31 00:37:50;;;;;;;22.67;3.25;;;2.60;99.90;;;;;;5099388;28;20024;-66
2022/01/31 00:40:18;;;;;;;27.95;4.80;;;2.60;99.90;;;;;;5099340;28;20042;-67
2022/01/31 00:42:45;;;;;;;27.48;3.97;;;2.60;99.90;;;;;;5099571;28;20031;-66
2022/01/31 00:45:28;;;;;;;30.60;4.15;;;2.60;99.90;;;;;;5099211;28;20055;-66
2022/01/31 00:48:02;;;;;;;28.05;5.63;;;2.60;99.90;;;;;;5100223;28;20028;-66
2022/01/31 00:50:39;;;;;;;23.65;4.50;;;2.60;99.90;;;;;;5099692;28;20035;-66
2022/01/31 00:53:14;;;;;;;36.03;4.90;;;2.60;99.90;;;;;;5098976;28;20028;-67
2022/01/31 00:55:42;;;;;;;32.55;5.05;;;2.60;99.90;;;;;;5098396;28;20035;-67
2022/01/31 00:58:10;;;;;;;16.58;2.85;;;2.60;99.90;;;;;;5100319;28;20017;-66
2022/01/31 01:00:37;;;;;;;18.08;3.72;;;2.60;99.90;;;;;;5099934;28;20024;-67
2022/01/31 01:03:05;;;;;;;29.42;5.25;;;2.70;99.90;;;;;;5100425;28;20042;-66
2022/01/31 01:05:32;;;;;;;22.92;4.25;;;2.60;99.90;;;;;;5065387;28;20077;-66
2022/01/31 01:08:00;;;;;;;17.10;3.28;;;2.60;99.90;;;;;;5100294;28;20055;-67
2022/01/31 01:10:27;;;;;;;26.75;3.67;;;2.70;99.90;;;;;;5081838;28;20024;-67
2022/01/31 01:12:55;;;;;;;34.63;5.50;;;2.70;99.90;;;;;;5099932;28;20020;-67
2022/01/31 01:15:22;;;;;;;15.90;4.18;;;2.70;99.90;;;;;;5099692;28;20032;-67
2022/01/31 01:17:49;;;;;;;25.20;3.17;;;2.70;99.90;;;;;;5099269;28;20039;-67
2022/01/31 01:20:20;;;;;;;17.88;3.47;;;2.80;99.90;;;;;;5099169;28;20023;-67
2022/01/31 01:22:48;;;;;;;17.48;3.28;;;2.80;99.90;;;;;;5098534;28;20106;-67
2022/01/31 01:25:16;;;;;;;10.30;2.28;;;2.80;99.90;;;;;;5080521;28;20047;-67
2022/01/31 01:27:46;;;;;;;15.43;3.47;;;2.90;99.90;;;;;;5098848;28;20024;-67
2022/01/31 01:30:15;;;;;;;19.02;2.83;;;2.90;99.90;;;;;;5098160;28;20126;-67
2022/01/31 01:32:59;;;;;;;28.33;3.53;;;2.90;99.90;;;;;;5098429;28;20111;-66
2022/01/31 01:35:33;;;;;;;21.80;3.53;;;3.00;99.90;;;;;;5098211;28;20024;-66
2022/01/31 01:38:07;;;;;;;12.07;2.70;;;3.00;99.90;;;;;;5098362;28;20020;-67
2022/01/31 01:40:40;;;;;;;13.45;2.28;;;3.00;99.90;;;;;;5099262;28;20024;-67
2022/01/31 01:43:08;;;;;;;12.77;3.03;;;3.00;99.90;;;;;;5081094;28;20031;-66
2022/01/31 01:45:36;;;;;;;11.65;2.97;;;3.00;99.90;;;;;;5099069;28;20064;-67
2022/01/31 01:48:06;;;;;;;16.17;4.55;;;3.00;99.90;;;;;;5081373;28;20052;-67
2022/01/31 01:50:35;;;;;;;16.27;5.28;;;3.00;99.90;;;;;;5099955;28;20050;-67
2022/01/31 01:53:02;;;;;;;25.15;3.40;;;3.10;99.90;;;;;;5098834;28;20032;-67
2022/01/31 01:55:30;;;;;;;16.77;3.00;;;3.10;99.90;;;;;;5099359;28;20027;-67
2022/01/31 01:57:58;;;;;;;20.45;4.40;;;3.10;99.90;;;;;;5099149;28;20058;-67
2022/01/31 02:00:26;;;;;;;16.58;5.15;;;3.10;99.90;;;;;;5098309;28;20056;-67
2022/01/31 02:02:55;;;;;;;16.15;3.58;;;3.10;99.90;;;;;;5080410;28;20051;-66
2022/01/31 02:05:23;;;;;;;15.70;3.45;;;3.10;99.90;;;;;;5097652;28;20030;-67
2022/01/31 02:07:51;;;;;;;11.32;3.17;;;3.10;99.90;;;;;;5097651;28;20024;-67
2022/01/31 02:10:18;;;;;;;37.28;5.40;;;3.10;99.90;;;;;;5097591;28;20070;-66
2022/01/31 02:12:48;;;;;;;13.57;2.85;;;3.10;99.90;;;;;;5079841;28;20024;-66
2022/01/31 02:15:17;;;;;;;10.40;2.60;;;3.10;99.90;;;;;;5097504;28;20305;-66
2022/01/31 02:17:44;;;;;;;19.60;3.20;;;3.10;99.90;;;;;;5097546;28;20027;-66
2022/01/31 02:20:11;;;;;;;25.08;3.78;;;3.10;99.90;;;;;;5098327;28;20047;-67
2022/01/31 02:22:38;;;;;;;15.80;4.32;;;3.10;99.90;;;;;;5081125;28;20428;-66
2022/01/31 02:25:06;;;;;;;18.75;2.17;;;3.10;99.90;;;;;;5098203;28;20032;-66
2022/01/31 02:27:36;;;;;;;11.88;3.10;;;3.10;99.90;;;;;;5098982;28;20024;-67
2022/01/31 02:30:06;;;;;;;11.25;2.55;;;3.10;99.90;;;;;;5098370;28;20301;-67
2022/01/31 02:32:34;;;;;;;14.88;2.60;;;3.10;99.90;;;;;;5098183;28;20020;-67
2022/01/31 02:35:01;;;;;;;16.02;3.55;;;3.10;99.90;;;;;;5098401;28;20020;-66
2022/01/31 02:37:29;;;;;;;18.63;3.20;;;3.10;99.90;;;;;;5098311;28;20012;-66
2022/01/31 02:39:57;;;;;;;9.80;3.03;;;3.20;99.90;;;;;;5098311;28;20103;-67
2022/01/31 02:42:24;;;;;;;15.65;2.58;;;3.10;99.90;;;;;;5097093;28;20028;-67
2022/01/31 02:44:51;;;;;;;20.48;4.55;;;3.10;99.90;;;;;;5097077;28;20027;-66
2022/01/31 02:47:24;;;;;;;11.63;3.70;;;3.10;99.90;;;;;;5097687;28;20095;-67
2022/01/31 02:49:59;;;;;;;11.38;3.05;;;3.10;99.90;;;;;;5096924;28;20370;-67
2022/01/31 02:52:32;;;;;;;16.48;4.22;;;3.10;99.90;;;;;;5096780;28;20056;-66
2022/01/31 02:54:59;;;;;;;13.57;2.90;;;3.10;99.90;;;;;;5096949;28;20016;-66
2022/01/31 02:57:26;;;;;;;14.75;3.05;;;3.10;99.90;;;;;;5079014;28;20024;-67
2022/01/31 02:59:54;;;;;;;14.70;3.00;;;3.10;99.90;;;;;;5078929;28;20024;-66
2022/01/31 03:02:21;;;;;;;13.82;2.75;;;3.10;99.90;;;;;;5096654;28;20020;-67
2022/01/31 03:04:49;;;;;;;18.55;3.70;;;3.10;99.90;;;;;;5080307;28;20047;-67
2022/01/31 03:07:16;;;;;;;26.20;4.53;;;3.10;99.90;;;;;;5097659;28;20137;-67
2022/01/31 03:09:44;;;;;;;12.70;3.38;;;3.10;99.90;;;;;;5097534;28;20024;-66
2022/01/31 03:12:13;;;;;;;9.40;3.30;;;3.10;99.90;;;;;;5097446;28;20435;-67
2022/01/31 03:14:42;;;;;;;14.15;2.70;;;3.10;99.90;;;;;;5097252;28;20106;-66
2022/01/31 03:17:10;;;;;;;22.55;3.22;;;3.10;99.90;;;;;;5097926;28;20318;-66
2022/01/31 03:19:39;;;;;;;7.70;2.17;;;3.10;99.90;;;;;;5096937;28;20077;-67
2022/01/31 03:22:07;;;;;;;18.45;3.33;;;3.10;99.90;;;;;;5097904;28;20190;-66
2022/01/31 03:24:35;;;;;;;13.65;3.30;;;3.10;99.90;;;;;;5096579;28;20027;-66
2022/01/31 03:27:02;;;;;;;16.52;2.80;;;3.10;99.90;;;;;;5096270;28;20073;-67
2022/01/31 03:29:30;;;;;;;13.30;3.60;;;3.10;99.90;;;;;;5078880;28;20016;-66
2022/01/31 03:31:57;;;;;;;9.32;4.18;;;3.10;99.90;;;;;;5075098;28;20048;-67
2022/01/31 03:34:25;;;;;;;12.43;3.53;;;3.10;99.90;;;;;;5076088;28;20048;-67
2022/01/31 03:36:53;;;;;;;19.00;3.70;;;3.10;99.90;;;;;;5076329;28;20027;-67
2022/01/31 03:39:20;;;;;;;12.05;2.83;;;3.10;99.90;;;;;;5075981;28;20321;-66
2022/01/31 03:41:48;;;;;;;17.30;4.25;;;3.10;99.90;;;;;;5075944;28;20028;-67
2022/01/31 03:44:15;;;;;;;11.10;2.50;;;3.10;99.90;;;;;;5076649;28;20048;-67
2022/01/31 03:46:42;;;;;;;16.88;3.55;;;3.00;99.90;;;;;;5076964;28;20443;-67
2022/01/31 03:49:10;;;;;;;12.48;3.40;;;2.90;99.90;;;;;;5077195;28;20430;-66
2022/01/31 03:51:37;;;;;;;9.98;3.05;;;2.90;99.90;;;;;;5077373;28;20107;-66
2022/01/31 03:54:04;;;;;;;16.08;3.13;;;2.70;99.90;;;;;;5076191;28;20032;-66
2022/01/31 03:56:32;;;;;;;15.88;3.45;;;2.60;99.90;;;;;;5077456;28;20076;-66
2022/01/31 03:58:59;;;;;;;11.68;2.65;;;2.50;99.90;;;;;;5077382;28;20020;-66
2022/01/31 04:01:27;;;;;;;9.48;3.13;;;2.40;99.90;;;;;;5076738;28;20324;-66
2022/01/31 04:03:54;;;;;;;15.60;3.60;;;2.30;99.90;;;;;;5076786;28;20344;-66
2022/01/31 04:06:23;;;;;;;21.58;4.25;;;2.10;99.90;;;;;;5075012;28;20028;-66
2022/01/31 04:08:51;;;;;;;15.35;3.70;;;2.00;99.90;;;;;;5075385;28;20028;-66
2022/01/31 04:11:19;;;;;;;17.95;3.60;;;1.90;99.90;;;;;;5075660;28;20084;-66
2022/01/31 04:13:46;;;;;;;16.38;4.47;;;1.80;99.90;;;;;;5058056;28;20032;-66
2022/01/31 04:16:13;;;;;;;13.57;3.33;;;1.70;99.90;;;;;;5075899;28;20020;-66
2022/01/31 04:18:43;;;;;;;7.72;3.30;;;1.50;99.90;;;;;;5075037;28;20025;-66
2022/01/31 04:21:10;;;;;;;14.85;3.47;;;1.40;99.90;;;;;;5075294;28;20044;-66
2022/01/31 04:23:38;;;;;;;18.63;3.65;;;1.40;99.90;;;;;;5074592;28;20094;-66
2022/01/31 04:26:14;;;;;;;12.40;3.47;;;1.30;99.90;;;;;;5074714;28;20048;-66
2022/01/31 04:28:44;;;;;;;;;;;1.20;99.90;;;;;;5076445;28;20443;-66
2022/01/31 04:33:50;;;;;;;9.25;2.67;;;1.20;99.90;;;;;;5100845;28;20013;-66
2022/01/31 04:36:18;;;;;;;10.77;2.95;;;1.10;99.90;;;;;;5100894;28;20016;-66
2022/01/31 04:38:49;;;;;;;9.85;2.25;;;1.10;99.90;;;;;;5100761;28;20069;-66
2022/01/31 04:41:16;;;;;;;5.88;1.45;;;1.10;99.90;;;;;;5100195;28;20042;-66
2022/01/31 04:43:56;;;;;;;4.85;2.17;;;1.10;99.90;;;;;;5082320;28;20020;-66
2022/01/31 04:46:24;;;;;;;3.88;2.00;;;1.00;99.90;;;;;;5100751;28;20416;-66
2022/01/31 04:48:51;;;;;;;7.40;3.40;;;1.00;99.90;;;;;;5100239;28;20020;-66
2022/01/31 04:51:18;;;;;;;7.35;2.63;;;1.00;99.90;;;;;;5081233;28;20089;-66
2022/01/31 04:53:46;;;;;;;4.30;2.70;;;1.00;99.90;;;;;;5099712;28;20100;-66
2022/01/31 04:56:13;;;;;;;7.88;2.05;;;1.00;99.90;;;;;;5099635;28;20020;-66
2022/01/31 04:58:40;;;;;;;3.05;1.40;;;1.00;99.90;;;;;;5099609;28;20016;-66
2022/01/31 05:01:08;;;;;;;4.75;2.22;;;1.00;99.90;;;;;;5099296;28;20297;-66
2022/01/31 05:03:36;;;;;;;3.33;1.73;;;1.00;99.90;;;;;;5099527;28;20055;-66
2022/01/31 05:06:03;;;;;;;7.90;1.98;;;1.00;99.90;;;;;;5099037;28;20436;-66
2022/01/31 05:08:33;;;;;;;2.80;1.38;;;1.00;99.90;;;;;;5080921;28;20453;-66
2022/01/31 05:11:00;;;;;;;2.50;1.65;;;0.90;99.90;;;;;;5081514;28;20168;-66
2022/01/31 05:13:27;;;;;;;3.60;1.48;;;0.90;99.90;;;;;;5100144;28;20020;-66
2022/01/31 05:15:55;;;;;;;5.93;1.42;;;0.90;99.90;;;;;;5081832;28;20028;-66
2022/01/31 05:18:22;;;;;;;6.53;1.80;;;0.90;99.90;;;;;;5100149;28;20401;-66
2022/01/31 05:20:50;;;;;;;3.83;1.80;;;0.90;99.90;;;;;;5099802;28;20031;-66
2022/01/31 05:23:17;;;;;;;3.45;1.75;;;0.90;99.90;;;;;;5099498;28;20028;-66
2022/01/31 05:25:44;;;;;;;3.22;1.92;;;0.90;99.90;;;;;;5099422;28;20028;-66
2022/01/31 05:28:11;;;;;;;2.45;1.25;;;0.90;99.90;;;;;;5099351;28;20081;-66
2022/01/31 05:30:39;;;;;;;3.28;1.45;;;0.90;99.90;;;;;;5099194;28;20035;-66
2022/01/31 05:33:06;;;;;;;4.18;1.60;;;0.90;99.90;;;;;;5080395;28;20036;-66
2022/01/31 05:35:34;;;;;;;2.85;1.33;;;0.90;99.90;;;;;;5080599;28;20020;-66
2022/01/31 05:38:01;;;;;;;1.90;1.08;;;0.90;99.90;;;;;;5080495;28;20036;-66
2022/01/31 05:40:29;;;;;;;4.22;0.77;;;0.90;99.90;;;;;;5080583;28;20369;-66
2022/01/31 05:42:56;;;;;;;1.70;1.00;;;0.90;99.90;;;;;;5079682;28;20055;-66
2022/01/31 05:45:24;;;;;;;2.42;0.98;;;0.90;99.90;;;;;;5080898;28;20039;-66
2022/01/31 05:47:51;;;;;;;1.67;0.70;;;0.90;99.90;;;;;;5098079;28;20024;-66
2022/01/31 05:50:19;;;;;;;1.58;1.02;;;0.90;99.90;;;;;;5098072;28;20032;-66
2022/01/31 05:52:46;;;;;;;1.58;0.80;;;0.90;99.90;;;;;;5097885;28;20388;-66
2022/01/31 05:55:14;;;;;;;1.60;0.80;;;0.90;99.90;;;;;;5098759;28;20024;-66
2022/01/31 05:57:43;;;;;;;1.63;0.98;;;1.00;99.90;;;;;;5098904;28;20024;-66
2022/01/31 06:00:11;;;;;;;1.52;0.70;;;0.90;99.90;;;;;;5098818;28;20142;-66
2022/01/31 06:02:39;;;;;;;2.20;1.08;;;1.00;99.90;;;;;;5099333;28;20103;-66
2022/01/31 06:05:06;;;;;;;1.90;1.05;;;1.00;99.90;;;;;;5080782;28;20024;-66
2022/01/31 06:07:34;;;;;;;3.42;1.30;;;1.00;99.90;;;;;;5099043;28;20024;-66
2022/01/31 06:10:02;;;;;;;1.20;0.95;;;1.00;99.90;;;;;;5098842;28;20367;-66
2022/01/31 06:12:30;;;;;;;3.40;1.63;;;1.00;99.90;;;;;;5080382;28;20028;-66
2022/01/31 06:14:58;;;;;;;3.35;1.40;;;1.00;99.90;;;;;;5098192;28;20040;-66
2022/01/31 06:17:25;;;;;;;3.92;1.98;;;1.00;99.90;;;;;;5097837;28;20059;-66
2022/01/31 06:19:52;;;;;;;4.07;1.95;;;0.90;99.90;;;;;;5097587;28;20066;-66
2022/01/31 06:22:20;;;;;;;5.47;2.63;;;0.90;99.90;;;;;;5079427;28;20024;-66
2022/01/31 06:24:47;;;;;;;2.97;1.80;;;0.90;99.90;;;;;;5097354;28;20066;-66
2022/01/31 06:27:16;;;;;;;3.08;1.75;;;0.90;99.90;;;;;;5097327;28;20048;-66
2022/01/31 06:29:46;;;;;;;4.38;2.50;;;0.90;99.90;;;;;;5097293;28;20359;-66
2022/01/31 06:32:15;;;;;;;7.00;3.35;;;1.00;99.90;;;;;;5096991;28;20093;-66
2022/01/31 06:34:42;;;;;;;7.28;4.20;;;1.00;99.90;;;;;;5097232;28;20119;-66
2022/01/31 06:37:09;;;;;;;7.38;3.72;;;1.10;99.90;;;;;;5098222;28;20103;-66
2022/01/31 06:39:36;;;;;;;8.77;4.65;;;1.10;99.90;;;;;;5080203;28;20028;-66
2022/01/31 06:42:04;;;;;;;8.43;4.18;;;1.10;99.90;;;;;;5080180;28;20043;-66
2022/01/31 06:44:31;;;;;;;8.00;4.95;;;1.10;99.90;;;;;;5098133;28;20024;-66
2022/01/31 06:46:58;;;;;;;13.48;5.63;;;1.20;99.90;;;;;;5080444;28;20017;-66
2022/01/31 06:49:26;;;;;;;9.43;4.57;;;1.20;99.90;;;;;;5097794;28;20039;-66
2022/01/31 06:51:53;;;;;;;12.25;5.82;;;1.30;99.90;;;;;;5097824;28;20020;-66
2022/01/31 06:54:20;;;;;;;13.10;6.95;;;1.40;99.90;;;;;;5096931;28;20043;-66
2022/01/31 06:56:47;;;;;;;25.67;8.15;;;1.40;99.90;;;;;;5079353;28;20016;-66
2022/01/31 06:59:14;;;;;;;14.27;7.07;;;1.40;99.90;;;;;;5079176;28;20439;-66
2022/01/31 07:01:42;;;;;;;14.07;7.72;;;1.50;99.90;;;;;;5097391;28;20051;-66
2022/01/31 07:04:11;;;;;;;8.70;5.15;;;1.50;99.90;;;;;;5096669;28;20031;-66
2022/01/31 07:06:38;;;;;;;15.13;7.55;;;1.50;99.90;;;;;;5096787;28;20331;-66
2022/01/31 07:09:06;;;;;;;11.40;6.15;;;1.60;99.90;;;;;;5096725;28;20406;-66
2022/01/31 07:11:39;;;;;;;15.55;7.82;;;1.70;99.90;;;;;;5096926;28;20032;-66
2022/01/31 07:16:52;;;;;;;12.40;5.72;;;1.70;99.90;;;;;;5097214;28;20023;-66
2022/01/31 07:19:23;;;;;;;12.82;6.80;;;1.80;99.90;;;;;;5096779;28;20020;-66
2022/01/31 07:21:51;;;;;;;10.57;5.20;;;1.80;99.90;;;;;;5080399;28;20032;-66
2022/01/31 07:24:23;;;;;;;21.02;8.45;;;1.80;99.90;;;;;;5097538;28;20035;-66
2022/01/31 07:26:52;;;;;;;21.73;10.05;;;1.90;99.90;;;;;;5097208;28;20024;-66
2022/01/31 07:29:21;;;;;;;19.45;8.77;;;1.90;99.90;;;;;;5079443;28;20034;-66
2022/01/31 07:31:50;;;;;;;14.48;7.70;;;2.00;99.90;;;;;;5097308;28;20048;-66
2022/01/31 07:34:18;;;;;;;15.82;7.32;;;2.00;99.90;;;;;;5079341;28;20020;-66
2022/01/31 07:36:46;;;;;;;21.52;8.45;;;2.00;99.90;;;;;;5097290;28;20020;-66
2022/01/31 07:39:14;;;;;;;17.73;9.80;;;2.10;99.90;;;;;;5079057;28;20302;-66
2022/01/31 07:41:42;;;;;;;21.02;9.43;;;2.20;99.90;;;;;;5097017;28;20174;-66
2022/01/31 07:44:10;;;;;;;16.85;9.57;;;2.20;99.90;;;;;;5078380;28;20032;-66
2022/01/31 07:46:38;;;;;;;21.27;9.48;;;2.30;99.90;;;;;;5096721;28;20024;-68
2022/01/31 07:49:06;;;;;;;15.07;7.78;;;2.30;99.90;;;;;;5096355;28;20412;-68
2022/01/31 07:51:38;;;;;;;11.50;6.70;;;2.40;99.90;;;;;;5078595;28;20036;-69
2022/01/31 07:54:06;;;;;;;14.25;8.13;;;2.50;99.90;;;;;;5096615;28;20043;-73
2022/01/31 07:56:34;;;;;;;13.30;7.97;;;2.50;99.90;;;;;;5096380;28;20019;-69
2022/01/31 07:59:02;;;;;;;14.75;6.95;;;2.60;99.90;;;;;;5078301;28;20028;-70
2022/01/31 08:01:29;;;;;;;13.07;6.53;;;2.60;99.90;;;;;;5061645;28;20020;-69
2022/01/31 08:03:57;;;;;;;14.00;6.40;;;2.60;99.90;;;;;;5079202;28;20027;-76
2022/01/31 08:06:24;;;;;;;19.17;8.57;;;2.60;99.90;;;;;;5099264;28;20020;-69
2022/01/31 08:08:51;;;;;;;15.00;7.63;;;2.60;99.90;;;;;;5066525;28;20420;-68
2022/01/31 08:11:18;;;;;;;13.75;6.97;;;2.70;99.90;;;;;;5101179;28;20382;-69
2022/01/31 08:13:46;;;;;;;14.13;6.10;;;2.70;99.90;;;;;;5083245;28;20028;-70
2022/01/31 08:16:15;;;;;;;12.55;5.50;;;2.70;99.90;;;;;;5100987;28;20404;-73
2022/01/31 08:18:44;;;;;;;13.70;6.07;;;2.80;99.90;;;;;;5100844;28;20051;-69
2022/01/31 08:21:15;;;;;;;10.75;5.43;;;2.80;99.90;;;;;;5083459;28;20082;-68
2022/01/31 08:23:43;;;;;;;15.10;5.82;;;2.90;99.90;;;;;;5099841;28;20047;-70
2022/01/31 08:26:12;;;;;;;12.52;4.57;;;2.90;99.90;;;;;;5099931;28;20028;-68
2022/01/31 08:28:59;;;;;;;10.20;4.03;;;3.00;99.90;;;;;;5099787;28;20459;-69
2022/01/31 08:31:33;;;;;;;8.48;4.60;;;3.10;99.90;;;;;;5099314;28;20439;-69
2022/01/31 08:34:18;;;;;;;12.80;4.60;;;3.20;99.90;;;;;;5099432;28;20031;-66
2022/01/31 08:36:46;;;;;;;10.77;4.30;;;3.30;99.90;;;;;;5099641;28;20045;-67
2022/01/31 08:39:17;;;;;;;12.50;4.25;;;3.40;99.90;;;;;;5099542;28;20145;-66
2022/01/31 08:41:49;;;;;;;12.48;4.47;;;3.40;99.90;;;;;;5099795;28;20416;-66
2022/01/31 08:44:19;;;;;;;10.27;4.60;;;3.50;99.90;;;;;;5099676;28;20313;-66
2022/01/31 08:46:54;;;;;;;10.38;4.30;;;3.60;99.90;;;;;;5101037;28;20403;-66
2022/01/31 08:49:21;;;;;;;5.55;2.75;;;3.60;99.90;;;;;;5100250;28;20412;-67
2022/01/31 08:51:50;;;;;;;10.32;3.75;;;3.70;99.90;;;;;;5100450;28;20425;-67
2022/01/31 08:54:17;;;;;;;6.97;3.22;;;3.60;99.90;;;;;;5100222;28;20020;-67
2022/01/31 08:56:45;;;;;;;9.73;3.45;;;3.60;99.90;;;;;;5100267;28;20016;-67
2022/01/31 08:59:18;;;;;;;7.35;2.72;;;3.60;99.90;;;;;;5100044;28;20031;-67
2022/01/31 09:02:30;;;;;;;7.45;3.92;;;3.60;99.90;;;;;;5100212;28;20036;-66
2022/01/31 09:04:47;;;;;;;5.45;2.50;;;3.60;99.90;;;;;;5095243;28;20036;-66
2022/01/31 09:07:21;;;;;;;5.03;2.30;;;3.50;99.90;;;;;;5099274;28;20032;-66
2022/01/31 09:09:53;;;;;;;8.02;1.70;;;3.50;99.90;;;;;;5098919;28;20486;-67
2022/01/31 09:12:26;;;;;;;7.90;2.83;;;3.50;99.90;;;;;;5099765;28;20290;-67
2022/01/31 09:14:54;;;;;;;5.07;1.70;;;3.50;99.90;;;;;;5098719;28;20074;-65
2022/01/31 09:17:21;;;;;;;5.00;2.13;;;3.50;99.90;;;;;;5063330;28;20373;-66
2022/01/31 09:19:48;;;;;;;5.55;2.10;;;3.50;99.90;;;;;;5098706;28;20038;-66
2022/01/31 09:22:16;;;;;;;7.85;2.58;;;3.60;99.90;;;;;;5081017;28;20039;-66
2022/01/31 09:24:44;;;;;;;9.98;2.80;;;3.50;99.90;;;;;;5098678;28;20020;-65
2022/01/31 09:27:11;;;;;;;4.35;1.83;;;3.60;99.90;;;;;;5098978;28;20463;-65
2022/01/31 09:29:39;;;;;;;6.65;2.63;;;3.60;99.90;;;;;;5081660;28;20032;-64
2022/01/31 09:32:07;;;;;;;8.85;2.15;;;3.60;99.90;;;;;;5099298;28;20056;-65
2022/01/31 09:34:34;;;;;;;6.25;2.17;;;3.50;99.90;;;;;;5081562;28;20027;-64
2022/01/31 09:37:02;;;;;;;4.50;2.00;;;3.60;99.90;;;;;;5081476;28;20420;-65
2022/01/31 09:39:31;;;;;;;7.80;2.92;;;3.50;99.90;;;;;;5081360;28;20028;-65
2022/01/31 09:41:59;;;;;;;6.57;2.50;;;3.50;99.90;;;;;;5099466;28;20042;-64
2022/01/31 09:47:23;;;;;;;3.78;2.00;;;3.60;99.90;;;;;;5099287;28;20031;-66
2022/01/31 09:49:52;;;;;;;3.55;1.80;;;3.60;99.90;;;;;;5098266;28;20024;-65
2022/01/31 09:52:20;;;;;;;3.05;1.48;;;3.60;99.90;;;;;;5098838;28;20451;-65
2022/01/31 09:54:49;;;;;;;4.70;2.33;;;3.60;99.90;;;;;;5097968;28;20024;-66
2022/01/31 09:57:20;;;;;;;4.38;1.73;;;3.60;99.90;;;;;;5081164;28;20086;-64
2022/01/31 09:59:50;;;;;;;4.57;2.03;;;3.60;99.90;;;;;;5080202;28;20024;-64
2022/01/31 10:02:18;;;;;;;1.52;0.88;;;3.60;99.90;;;;;;5098881;28;20020;-65
2022/01/31 10:04:48;;;;;;;3.30;1.58;;;3.60;99.90;;;;;;5098091;28;20077;-64
2022/01/31 10:07:17;;;;;;;5.95;1.33;;;3.60;99.90;;;;;;5097962;28;20615;-65
2022/01/31 10:09:50;;;;;;;4.13;1.50;;;3.70;99.90;;;;;;5098120;28;20055;-65
2022/01/31 10:16:25;;;;;;;4.22;2.15;;;3.70;99.90;;;;;;5099092;28;20024;-66
2022/01/31 10:18:03;;;;;;;11.90;4.55;;;3.70;99.90;;;;;;5099186;28;20074;-65
2022/01/31 10:20:35;;;;;;;17.27;6.15;;;3.80;99.90;;;;;;5098648;28;20020;-68
2022/01/31 10:23:11;;;;;;;3.78;2.00;;;3.80;99.90;;;;;;5098594;28;20328;-70
2022/01/31 10:25:39;;;;;;;6.85;1.92;;;3.90;99.90;;;;;;5098846;28;20023;-67
2022/01/31 10:28:15;;;;;;;5.18;1.77;;;3.90;99.90;;;;;;5098330;28;20355;-67
2022/01/31 10:30:44;;;;;;;;;;;4.00;99.90;;;;;;5098020;28;20129;-67
2022/01/31 10:33:17;;;;;;;3.28;1.48;;;4.10;99.90;;;;;;5097862;28;19912;-66
2022/01/31 10:35:45;;;;;;;2.97;1.25;;;4.10;99.90;;;;;;5097536;28;20024;-66
2022/01/31 10:38:18;;;;;;;2.55;1.40;;;4.10;99.90;;;;;;5079536;28;20024;-67
2022/01/31 10:44:25;;;;;;;1.65;0.80;;;4.10;99.90;;;;;;5098104;28;20027;-67
2022/01/31 10:52:29;;;;;;;2.08;0.80;;;3.90;99.90;;;;;;5083113;28;20375;-66
2022/01/31 10:55:15;;;;;;;2.50;0.60;;;3.90;99.90;;;;;;5097883;28;20020;-66
2022/01/31 10:57:42;;;;;;;1.88;1.08;;;3.90;99.90;;;;;;5080263;28;20024;-66
2022/01/31 11:00:11;;;;;;;1.75;1.00;;;3.90;99.90;;;;;;5097865;28;20027;-66
2022/01/31 11:02:38;;;;;;;1.67;1.20;;;3.90;99.90;;;;;;5097940;28;20028;-66
2022/01/31 11:05:22;;;;;;;2.47;0.75;;;4.00;99.90;;;;;;5097971;28;20031;-65
2022/01/31 11:07:50;;;;;;;2.40;0.77;;;4.00;99.90;;;;;;5098087;28;20417;-67
2022/01/31 11:10:29;;;;;;;2.58;0.90;;;3.90;99.90;;;;;;5097824;28;20035;-67
2022/01/31 11:12:56;;;;;;;2.83;1.35;;;3.90;99.90;;;;;;5097556;28;20426;-67
2022/01/31 11:15:24;;;;;;;5.90;2.63;;;4.00;99.90;;;;;;5096882;28;20095;-67
2022/01/31 11:18:00;;;;;;;3.58;1.23;;;4.00;99.90;;;;;;5079062;28;20031;-67
2022/01/31 11:20:31;;;;;;;;;;;4.00;99.90;;;;;;5097225;28;20020;-66
2022/01/31 11:23:01;;;;;;;2.50;1.98;;;4.10;99.90;;;;;;5079432;28;20303;-66
2022/01/31 11:25:31;;;;;;;1.75;1.25;;;4.10;99.90;;;;;;5078783;28;20060;-67
2022/01/31 11:28:02;;;;;;;3.65;2.17;;;4.10;99.90;;;;;;5096971;28;20042;-66
2022/01/31 11:30:31;;;;;;;2.30;1.80;;;4.20;99.90;;;;;;5075430;28;20044;-66
2022/01/31 11:32:59;;;;;;;3.75;3.08;;;4.20;99.90;;;;;;5077004;28;20311;-66
2022/01/31 11:35:26;;;;;;;3.55;2.53;;;4.20;99.90;;;;;;5092795;28;20021;-65
2022/01/31 11:37:55;;;;;;;5.07;3.40;;;4.20;99.90;;;;;;5077312;28;20021;-65
2022/01/31 11:40:23;;;;;;;2.28;1.30;;;4.20;99.90;;;;;;5079192;28;20024;-65
2022/01/31 11:42:52;;;;;;;2.15;1.23;;;4.30;99.90;;;;;;5084261;28;20020;-65
2022/01/31 11:45:26;;;;;;;1.70;0.90;;;4.30;99.90;;;;;;5083952;28;20031;-65
2022/01/31 11:47:56;;;;;;;4.18;1.02;;;4.30;99.90;;;;;;5083967;28;20029;-66
2022/01/31 11:50:24;;;;;;;2.72;1.05;;;4.40;99.90;;;;;;5085026;28;20321;-65
2022/01/31 11:53:03;;;;;;;1.42;0.80;;;4.40;99.90;;;;;;5083764;28;20050;-66
2022/01/31 11:55:38;;;;;;;2.15;0.88;;;4.40;99.90;;;;;;5082411;28;20028;-66
2022/01/31 11:58:09;;;;;;;1.38;0.70;;;4.40;99.90;;;;;;5082765;28;20074;-66
2022/01/31 12:00:51;;;;;;;2.28;1.88;;;4.50;99.90;;;;;;5082959;28;20028;-66
2022/01/31 12:03:19;;;;;;;2.00;0.90;;;4.50;99.90;;;;;;5098667;28;20025;-65
2022/01/31 12:05:49;;;;;;;2.75;0.73;;;4.60;99.90;;;;;;5083030;28;20070;-66
2022/01/31 12:08:23;;;;;;;1.75;1.00;;;4.60;99.90;;;;;;5082772;28;20031;-66
2022/01/31 12:10:54;;;;;;;1.25;0.73;;;4.70;99.90;;;;;;5082781;28;20029;-66
2022/01/31 12:13:46;;;;;;;1.83;0.85;;;4.70;99.90;;;;;;5083220;28;20021;-67
2022/01/31 12:16:45;;;;;;;1.58;0.90;;;4.70;99.90;;;;;;5083219;28;20022;-66
2022/01/31 12:22:40;;;;;;;2.10;0.90;;;4.70;99.90;;;;;;5002429;28;20030;-67
2022/01/31 12:25:31;;;;;;;0.98;0.60;;;4.80;99.90;;;;;;5074392;28;20056;-66
2022/01/31 12:28:19;;;;;;;1.63;0.80;;;4.90;99.90;;;;;;5083461;28;20040;-66
2022/01/31 12:30:47;;;;;;;2.33;0.95;;;4.90;99.90;;;;;;5090604;28;20098;-66
2022/01/31 12:33:42;;;;;;;1.95;0.77;;;4.90;99.90;;;;;;5085739;28;20032;-65
2022/01/31 12:36:10;;;;;;;1.35;0.70;;;4.90;99.90;;;;;;5104215;28;20020;-65
2022/01/31 12:38:38;;;;;;;4.00;1.02;;;4.90;99.90;;;;;;5103253;28;20027;-66
2022/01/31 12:41:30;;;;;;;0.98;0.50;;;5.00;99.90;;;;;;5102596;28;20028;-67
2022/01/31 12:44:38;;;;;;;1.35;0.65;;;5.00;99.90;;;;;;5102588;28;20059;-66
2022/01/31 12:47:11;;;;;;;1.00;0.60;;;5.00;99.90;;;;;;5021510;28;20050;-66
2022/01/31 12:49:39;;;;;;;0.95;0.60;;;5.00;99.90;;;;;;5093263;28;20046;-69
2022/01/31 12:52:07;;;;;;;1.25;0.60;;;5.00;99.90;;;;;;5101714;28;20024;-66
2022/01/31 12:54:36;;;;;;;1.00;0.60;;;4.90;99.90;;;;;;5099424;28;20042;-66
2022/01/31 12:57:07;;;;;;;1.08;0.50;;;4.90;99.90;;;;;;5099157;28;20028;-66
2022/01/31 12:59:34;;;;;;;1.65;0.70;;;4.90;99.90;;;;;;5081368;28;20020;-66
2022/01/31 13:02:07;;;;;;;0.38;0.20;;;4.90;99.90;;;;;;5100462;28;20032;-66
2022/01/31 13:04:35;;;;;;;1.38;0.55;;;4.90;99.90;;;;;;5100704;28;20351;-66
2022/01/31 13:07:04;;;;;;;0.95;0.50;;;4.90;99.90;;;;;;5082269;28;20040;-66
2022/01/31 13:09:38;;;;;;;1.02;0.50;;;4.90;99.90;;;;;;5100147;28;20035;-66
2022/01/31 13:12:11;;;;;;;0.60;0.40;;;4.90;99.90;;;;;;5100566;28;20344;-66
2022/01/31 13:14:45;;;;;;;1.13;0.60;;;4.90;99.90;;;;;;5100167;28;20031;-66
2022/01/31 13:17:16;;;;;;;1.98;0.40;;;4.90;99.90;;;;;;5100384;28;20435;-66
2022/01/31 13:19:47;;;;;;;1.85;0.40;;;4.90;99.90;;;;;;5099601;28;20444;-66
2022/01/31 13:22:32;;;;;;;1.27;0.50;;;5.00;99.90;;;;;;5099744;28;20028;-66
2022/01/31 13:25:07;;;;;;;1.33;0.50;;;5.00;99.90;;;;;;5099142;28;20028;-66
2022/01/31 13:27:41;;;;;;;1.13;0.60;;;5.00;99.90;;;;;;5098996;28;20028;-66
2022/01/31 13:30:17;;;;;;;5.35;0.98;;;5.00;99.90;;;;;;5098621;28;20081;-66